METAR Data
IDs: Format: Raw Decoded Include TAF

Data at: 0707 UTC 23 Feb 2019

KRKP 230553Z AUTO 15006KT 1/4SM FG VV002 18/18 A2983 RMK AO2 SLP104 T01830178 10183 20156 401830117 58010
KRKP 230453Z AUTO 10004KT 1/4SM FG VV002 16/16 A2985 RMK AO2 SLP108 T01560156
KRKP 230353Z AUTO 12006KT 1/4SM FG VV002 16/16 A2985 RMK AO2 SLP110 T01560156
KRKP 230253Z AUTO 08004KT 1/4SM FG VV002 16/16 A2986 RMK AO2 SLP114 T01610156 51007
KRKP 230153Z AUTO 05004KT 1/4SM FG VV003 16/16 A2986 RMK AO2 SLP114 T01610161
KRKP 230053Z AUTO 05004KT 1/2SM FG VV003 16/16 A2985 RMK AO2 SLP111 T01610161
KRKP 230042Z AUTO 05003KT 3/4SM BR OVC002 17/16 A2985 RMK AO2 T01670161
KRKP 230028Z AUTO 04003KT 1 1/4SM BR OVC002 17/16 A2985 RMK AO2 T01670161
KRKP 230009Z AUTO 03004KT 1/2SM FG OVC002 17/16 A2985 RMK AO2 T01670161
KRKP 222353Z AUTO 06004KT 1SM BR OVC002 16/16 A2984 RMK AO2 SLP107 60000 T01610156 10172 20139 58001
KRKP 222347Z AUTO 07003KT 1 1/4SM BR OVC002 16/16 A2985 RMK AO2 CIG 002V005
KRKP 222340Z AUTO 08003KT 2SM BR OVC004 16/16 A2984 RMK AO2 T01610156
KRKP 222313Z AUTO 03003KT 4SM BR OVC004 17/16 A2984 RMK AO2 T01670161
KRKP 222253Z AUTO 01004KT 3SM BR OVC003 17/16 A2985 RMK AO2 SLP108 T01670156
KRKP 222239Z AUTO 01004KT 3SM BR OVC003 17/16 A2985 RMK AO2 T01670156
KRKP 222221Z AUTO 35004KT 2 1/2SM BR OVC002 16/16 A2985 RMK AO2 T01610156
KRKP 222209Z AUTO 35004KT 1 1/4SM BR OVC002 16/16 A2985 RMK AO2 T01610156
KRKP 222153Z AUTO 35006KT 3/4SM BR OVC002 16/16 A2985 RMK AO2 SLP108 T01560156
KRKP 222053Z AUTO 35006KT 3/4SM BR OVC002 15/15 A2985 RMK AO2 SLP109 60000 T01500150 56028
KRKP 222046Z AUTO 35004KT 1SM BR OVC002 15/15 A2985 RMK AO2 T01500150
KRKP 222036Z AUTO 35005KT 3/4SM BR OVC002 15/15 A2985 RMK AO2 T01500150
KRKP 222013Z AUTO 01004KT 1 3/4SM BR OVC003 16/16 A2986 RMK AO2 T01560156
KRKP 222001Z AUTO 01004KT 1 1/4SM BR OVC004 16/16 A2986 RMK AO2 T01560156
KRKP 221953Z AUTO 02005KT 3/4SM BR OVC004 16/16 A2986 RMK AO2 RAB19E38 SLP114 P0000 T01560156
KRKP 221853Z AUTO 01007KT 1/4SM FG VV003 14/14 A2990 RMK AO2 SLP127 T01440144
KRKP 221753Z AUTO 32009KT 1/4SM FG VV002 14/14 A2993 RMK AO2 SLP136 60000 T01390139 10144 20117 50000
KRKP 221653Z AUTO 35007KT 1/4SM FG VV002 14/14 A2993 RMK AO2 SLP138 T01390139
KRKP 221553Z AUTO 02004KT 1/4SM FG VV003 13/13 A2994 RMK AO2 RAB08E17 SLP138 P0000 T01330133
KRKP 221453Z AUTO 06005KT 1/2SM FG OVC002 13/13 A2993 RMK AO2 SLP136 60000 T01330133 53009
KRKP 221441Z AUTO 06005KT 3/4SM BR OVC002 13/13 A2993 RMK AO2 T01330133
KRKP 221430Z AUTO 05006KT 1SM BR OVC003 13/13 A2993 RMK AO2 T01330128
KRKP 221407Z AUTO 07007KT 1 3/4SM BR OVC003 13/13 A2992 RMK AO2 T01280128
KRKP 221400Z AUTO 06006KT 2SM BR OVC003 13/13 A2992 RMK AO2 T01280128
KRKP 221353Z AUTO 06005KT 2SM BR OVC004 13/13 A2992 RMK AO2 SLP133 T01280128
KRKP 221343Z AUTO 07007KT 2 1/2SM BR OVC004 13/13 A2992 RMK AO2 T01280128
KRKP 221316Z AUTO 06004KT 4SM BR OVC004 12/12 A2991 RMK AO2 T01220122
KRKP 221253Z AUTO 05007KT 4SM BR OVC003 12/12 A2991 RMK AO2 RAE05 SLP130 P0000 T01220122
KRKP 221224Z AUTO 05008KT 3SM BR OVC002 12/12 A2990 RMK AO2 RAE05 P0000 T01170117
KRKP 221211Z AUTO 04008KT 2 1/2SM BR OVC002 12/12 A2991 RMK AO2 RAE05 P0000 T01170117
KRKP 221203Z AUTO 03008KT 2SM -RA BR OVC002 12/12 A2990 RMK AO2 P0000 T01170117
KRKP 221153Z AUTO 02008KT 1 3/4SM -RA BR OVC002 12/12 A2990 RMK AO2 RAB47 SLP128 P0000 60000 T01170117 10133 20117 53002
KRKP 221131Z AUTO 02007KT 1 1/4SM BR OVC002 12/12 A2991 RMK AO2 T01220122
KRKP 221121Z AUTO 02009KT 1SM BR OVC002 12/12 A2990 RMK AO2 T01170117
KRKP 221109Z AUTO 02008KT 1 1/4SM BR OVC002 12/12 A2990 RMK AO2 T01220122
KRKP 221101Z AUTO 03011KT 3/4SM BR OVC002 12/12 A2990 RMK AO2 T01220122
KRKP 221053Z AUTO 02009KT 1SM BR OVC002 12/12 A2990 RMK AO2 SLP125 T01220122
KRKP 221044Z AUTO 02010KT 1SM BR OVC002 12/12 A2990 RMK AO2 T01220122
KRKP 220953Z AUTO 04009KT 3/4SM BR OVC002 12/12 A2989 RMK AO2 RAB09E34 SLP125 P0000 T01220122
KRKP 220945Z AUTO 03011KT 3/4SM BR OVC002 12/12 A2990 RMK AO2 RAB09E34 P0000 T01220122
KRKP 220933Z AUTO 02011KT 1 1/4SM -RA BR OVC002 12/12 A2990 RMK AO2 RAB09 P0000 T01220122
KRKP 220853Z AUTO 04008KT 1/2SM FG VV002 12/12 A2990 RMK AO2 SLP125 T01220122 58006
KRKP 220753Z AUTO 03007KT 1/4SM FG VV002 13/13 A2990 RMK AO2 SLP127 T01280128
KRKP 220653Z AUTO 01009KT 1/4SM FG VV002 13/13 A2991 RMK AO2 SLP130 T01280128
KRKP 220553Z AUTO 01006KT 1/2SM FG VV003 13/13 A2991 RMK AO2 SLP131 T01330133 10133 20133 401610133 51005
KRKP 220527Z AUTO 02005KT 1SM BR OVC002 13/13 A2991 RMK AO2 T01330133
KRKP 220502Z AUTO 05008KT 1 1/2SM BR OVC002 13/13 A2990 RMK AO2 T01330128
KRKP 220453Z AUTO 05008KT 2SM BR OVC003 13/13 A2990 RMK AO2 SLP127 T01330128
KRKP 220449Z AUTO 07010KT 2SM BR OVC003 13/13 A2990 RMK AO2
KRKP 220425Z AUTO 07009KT 4SM BR OVC003 13/13 A2989 RMK AO2 T01330128
KRKP 220353Z AUTO 07009KT 5SM BR OVC004 13/12 A2990 RMK AO2 SLP125 T01330122
KRKP 220253Z AUTO 04008KT 7SM OVC006 13/12 A2990 RMK AO2 SLP126 T01330122 53022
KRKP 220153Z AUTO 05007KT 8SM OVC007 13/12 A2988 RMK AO2 SLP118 T01330117
KRKP 220119Z AUTO 03009KT 8SM OVC007 13/12 A2985 RMK AO2 T01330117
KRKP 220053Z AUTO 04010KT 8SM OVC008 13/12 A2984 RMK AO2 SLP106 T01330122
KRKP 220039Z AUTO 05010KT 8SM OVC008 14/12 A2983 RMK AO2 T01390122
KRKP 212353Z AUTO 03011KT 6SM BR OVC011 14/12 A2983 RMK AO2 SLP103 60000 T01390122 10161 20139 56006
KRKP 212253Z AUTO 04011KT 7SM OVC010 15/13 A2984 RMK AO2 SLP106 T01500128
KRKP 212240Z AUTO 03009KT 7SM OVC010 15/13 A2984 RMK AO2 CIG 007V011 T01500128
KRKP 212211Z AUTO 02009KT 6SM BR OVC009 14/13 A2984 RMK AO2 CIG 007V012 T01440128
KRKP 212153Z AUTO 02008KT 6SM BR OVC010 14/13 A2984 RMK AO2 CIG 007V012 SLP105 T01440128
KRKP 212103Z AUTO 36009KT 3SM BR OVC010 14/13 A2985 RMK AO2 CIG 008V012 T01390128
KRKP 212053Z AUTO 36010KT 2 1/2SM BR OVC010 14/13 A2985 RMK AO2 RAB30E51 SLP110 P0000 60000 T01440128 56015
KRKP 212043Z AUTO 36008KT 1 1/2SM -RA BR OVC011 14/13 A2985 RMK AO2 RAB30 P0000 T01440128
KRKP 212034Z AUTO 01008KT 2SM -RA BR OVC011 14/13 A2985 RMK AO2 RAB30 P0000 T01440128
KRKP 211953Z AUTO 01009KT 7SM OVC012 16/12 A2986 RMK AO2 SLP111 T01560122